Terminal Aerodrome Forecast
Issued by NWS Charleston, SC

Home | Current Version | Previous Version | Text Only | Print | Product List | Glossary On
Versions: 1 2 3 4 5 6 7 8 9 10 11 12 13 14 15 16 17 18 19 20 21 22 23 24 25 26 27
000
FTUS42 KCHS 300532
TAFCHS
TAF
KCHS 300532Z 3006/0106 15005KT P6SM FEW004 FEW015
     FM300700 15004KT 6SM BR SCT003 SCT008
      TEMPO 3008/3011 4SM BR BKN003
     FM301200 16006KT P6SM SCT015
     FM301700 15012G18KT P6SM SCT040
     FM302300 14005KT P6SM FEW040=

USA.gov is the U.S. government's official web portal to all federal, state and local government web resources and services.